createdAt,value
2023-03-29T00:04:59.561Z,1018
2023-03-29T00:24:59.616Z,1018
2023-03-29T00:44:59.698Z,1016
2023-03-29T01:04:59.763Z,1016
2023-03-29T01:44:59.164Z,1016
2023-03-29T02:04:59.972Z,1016
2023-03-29T02:25:16.062Z,1017
2023-03-29T03:05:00.201Z,1013
2023-03-29T03:24:59.508Z,1014
2023-03-29T03:45:16.335Z,1015
2023-03-29T04:05:00.427Z,1016
2023-03-29T04:25:00.470Z,1013
2023-03-29T04:45:00.590Z,1014
2023-03-29T05:25:00.682Z,1005
2023-03-29T05:45:08.002Z,1010
2023-03-29T06:25:00.161Z,1013
2023-03-29T06:45:08.967Z,1013
2023-03-29T07:05:01.018Z,1014
2023-03-29T07:25:09.101Z,1012
2023-03-29T07:45:09.184Z,1012
2023-03-29T08:05:08.519Z,1014
2023-03-29T08:25:01.287Z,1011
2023-03-29T09:05:01.711Z,1011
2023-03-29T09:25:01.472Z,1009
2023-03-29T09:45:17.558Z,1006
2023-03-29T10:05:09.624Z,1010
2023-03-29T10:25:09.670Z,1006
2023-03-29T10:45:01.713Z,1006
2023-03-29T11:05:01.038Z,1005
2023-03-29T11:45:01.923Z,993
2023-03-29T12:05:01.997Z,993
2023-03-29T12:25:02.088Z,997
2023-03-29T12:45:02.077Z,992
2023-03-29T13:05:02.217Z,996
2023-03-29T13:25:10.162Z,994
2023-03-29T13:45:02.274Z,995
2023-03-29T14:05:02.287Z,998
2023-03-29T14:45:02.380Z,997
2023-03-29T15:05:17.683Z,1005
2023-03-29T15:25:18.497Z,992
2023-03-29T15:45:10.698Z,994
2023-03-29T16:05:10.619Z,997
2023-03-29T16:25:02.688Z,990
2023-03-29T16:45:02.753Z,992
2023-03-29T17:05:02.807Z,992
2023-03-29T18:05:10.961Z,995
2023-03-29T18:25:02.303Z,995
2023-03-29T18:45:03.111Z,997
2023-03-29T19:05:11.124Z,995
2023-03-29T19:25:03.245Z,997
2023-03-29T19:45:03.267Z,1000
2023-03-29T20:05:03.328Z,998
2023-03-29T20:25:19.485Z,997
2023-03-29T20:45:11.438Z,993
2023-03-29T21:05:11.498Z,993
2023-03-29T21:25:03.574Z,992
2023-03-29T22:05:11.673Z,993
2023-03-29T22:45:03.875Z,990
2023-03-29T23:25:03.922Z,997
2023-03-29T23:45:11.254Z,997
